Time;durP1;ratioP1;P1;durP2;ratioP2;P2;SDS_P1;SDS_P2;PMS_P1;PMS_P2;Temp;Humidity;BMP_temperature;BMP_pressure;BME280_temperature;BME280_humidity;BME280_pressure;Samples;Min_cycle;Max_cycle;Signal;HPM_P1;HPM_P2
2022/08/31 00:04:01;;;;;;;8.38;5.20;;;;;;;15.96;100.00;99572.50;1729724;81;21064;-69
2022/08/31 00:06:26;;;;;;;10.18;5.40;;;;;;;15.88;100.00;99569.94;1729433;80;21145;-69
2022/08/31 00:08:53;;;;;;;7.58;4.70;;;;;;;15.88;100.00;99580.91;1738898;81;20995;-67
2022/08/31 00:11:27;;;;;;;7.78;5.17;;;;;;;15.90;100.00;99571.27;1706141;82;21069;-67
2022/08/31 00:13:49;;;;;;;9.50;5.15;;;;;;;15.94;100.00;99578.32;1729086;81;21034;-66
2022/08/31 00:16:15;;;;;;;;;;;;;;;15.93;100.00;99576.13;1729718;81;21093;-67
2022/08/31 00:18:42;;;;;;;9.18;5.53;;;;;;;15.85;100.00;99580.16;1728517;82;20134;-67
2022/08/31 00:21:09;;;;;;;10.50;5.30;;;;;;;15.69;100.00;99581.65;1722288;81;21136;-67
2022/08/31 00:23:35;;;;;;;7.92;5.35;;;;;;;15.64;100.00;99579.01;1743579;81;21449;-67
2022/08/31 00:26:02;;;;;;;11.43;4.78;;;;;;;15.66;100.00;99576.20;1733011;81;21122;-66
2022/08/31 00:28:29;;;;;;;9.03;5.17;;;;;;;15.68;100.00;99584.13;1730977;81;21090;-67
2022/08/31 00:30:56;;;;;;;9.08;5.05;;;;;;;15.64;100.00;99581.75;1732810;81;21133;-67
2022/08/31 00:33:22;;;;;;;;;;;;;;;15.59;100.00;99578.55;1732268;81;21042;-67
2022/08/31 00:35:48;;;;;;;10.13;5.05;;;;;;;15.53;100.00;99581.16;1741547;80;20115;-67
2022/08/31 00:38:15;;;;;;;8.20;5.12;;;;;;;15.41;100.00;99576.72;1730021;81;21556;-68
2022/08/31 00:40:44;;;;;;;9.58;4.72;;;;;;;15.42;100.00;99581.09;1734055;80;21050;-67
2022/08/31 00:43:38;;;;;;;10.18;5.35;;;;;;;15.47;100.00;99578.81;1728164;81;21562;-67
2022/08/31 00:46:05;;;;;;;12.28;5.33;;;;;;;15.48;100.00;99580.44;1736004;80;21047;-67
2022/08/31 00:48:32;;;;;;;9.50;5.55;;;;;;;15.46;100.00;99584.85;1734453;81;21102;-67
2022/08/31 00:50:58;;;;;;;9.28;4.85;;;;;;;15.43;100.00;99582.17;1738564;80;21073;-68
2022/08/31 00:53:25;;;;;;;8.03;5.17;;;;;;;15.45;100.00;99586.78;1672307;84;21052;-68
2022/08/31 00:55:51;;;;;;;;;;;;;;;15.50;100.00;99579.04;1681299;84;21098;-68
2022/08/31 00:58:17;;;;;;;8.45;4.47;;;;;;;15.56;100.00;99586.03;1665717;84;20139;-67
2022/08/31 01:00:45;;;;;;;12.23;5.50;;;;;;;15.52;100.00;99581.48;1727303;82;21139;-67
2022/08/31 01:03:11;;;;;;;10.20;5.65;;;;;;;15.53;100.00;99585.83;1724468;82;21013;-67
2022/08/31 01:05:38;;;;;;;8.00;5.05;;;;;;;15.49;100.00;99584.82;1689995;83;21099;-66
2022/08/31 01:08:05;;;;;;;9.60;5.75;;;;;;;15.45;100.00;99581.85;1724063;82;21054;-67
2022/08/31 01:10:38;;;;;;;8.43;4.90;;;;;;;15.45;100.00;99585.41;1718107;82;21614;-67
2022/08/31 01:13:05;;;;;;;7.22;4.58;;;;;;;15.48;100.00;99586.72;1719209;82;21110;-67
2022/08/31 01:15:32;;;;;;;9.13;5.45;;;;;;;15.52;100.00;99586.97;1723058;81;21146;-67
2022/08/31 01:18:01;;;;;;;7.58;6.00;;;;;;;15.51;100.00;99584.79;1721079;82;21117;-67
2022/08/31 01:20:53;;;;;;;7.25;5.50;;;;;;;15.50;100.00;99593.31;1723808;81;21106;-67
2022/08/31 01:23:24;;;;;;;10.18;5.60;;;;;;;15.47;100.00;99580.19;1710455;82;21090;-67
2022/08/31 01:25:52;;;;;;;8.23;5.08;;;;;;;15.47;100.00;99587.86;1727585;82;21042;-67
2022/08/31 01:28:18;;;;;;;8.70;5.00;;;;;;;15.51;100.00;99586.72;1681730;83;21079;-67
2022/08/31 01:31:02;;;;;;;12.10;4.80;;;;;;;15.53;100.00;99593.51;1714507;82;21165;-67
2022/08/31 01:33:31;;;;;;;8.35;5.03;;;;;;;15.53;100.00;99588.58;1715197;82;21931;-67
2022/08/31 01:35:59;;;;;;;9.18;5.35;;;;;;;15.47;100.00;99588.41;1730451;81;21145;-67
2022/08/31 01:38:25;;;;;;;;;;;;;;;15.44;100.00;99580.25;1701199;83;21592;-66
2022/08/31 01:40:55;;;;;;;7.55;4.97;;;;;;;15.43;100.00;99583.55;1728251;81;20185;-67
2022/08/31 01:43:22;;;;;;;9.55;4.67;;;;;;;15.42;100.00;99585.21;1716533;82;21083;-66
2022/08/31 01:45:49;;;;;;;8.68;4.92;;;;;;;15.42;100.00;99584.66;1718928;82;21074;-67
2022/08/31 01:48:16;;;;;;;10.10;5.75;;;;;;;15.41;100.00;99576.16;1721667;82;21054;-67
2022/08/31 01:50:43;;;;;;;9.95;5.40;;;;;;;15.37;100.00;99579.27;1714217;82;21046;-67
2022/08/31 01:53:10;;;;;;;7.47;5.50;;;;;;;15.31;100.00;99569.53;1680119;84;21138;-66
2022/08/31 01:55:37;;;;;;;8.88;5.10;;;;;;;15.26;100.00;99576.52;1716417;82;21102;-67
2022/08/31 01:58:05;;;;;;;8.38;5.20;;;;;;;15.25;100.00;99575.44;1709728;82;21613;-67
2022/08/31 02:00:38;;;;;;;7.60;4.90;;;;;;;15.24;100.00;99584.22;1714245;82;21079;-67
2022/08/31 02:03:06;;;;;;;6.90;5.08;;;;;;;15.20;100.00;99574.97;1717450;82;21047;-67
2022/08/31 02:05:34;;;;;;;7.12;4.65;;;;;;;15.15;100.00;99585.25;1722096;82;21038;-67
2022/08/31 02:08:03;;;;;;;8.95;5.20;;;;;;;15.14;100.00;99581.69;1705202;82;21039;-67
2022/08/31 02:10:29;;;;;;;9.28;5.28;;;;;;;15.15;100.00;99577.02;1730067;82;21546;-67
2022/08/31 02:12:56;;;;;;;8.03;5.28;;;;;;;15.16;100.00;99573.95;1678499;85;21015;-67
2022/08/31 02:15:24;;;;;;;7.33;4.72;;;;;;;15.14;100.00;99576.76;1684505;83;21054;-67
2022/08/31 02:17:51;;;;;;;7.17;4.75;;;;;;;15.03;100.00;99580.81;1676692;84;21395;-67
2022/08/31 02:20:18;;;;;;;7.78;4.83;;;;;;;14.95;100.00;99572.19;1725555;81;21383;-67
2022/08/31 02:22:46;;;;;;;7.50;4.67;;;;;;;14.91;100.00;99571.75;1720298;82;21525;-67
2022/08/31 02:25:12;;;;;;;7.33;4.70;;;;;;;14.88;100.00;99571.78;1712234;82;21078;-67
2022/08/31 02:27:39;;;;;;;8.28;5.47;;;;;;;14.82;100.00;99575.74;1709628;82;21058;-67
2022/08/31 02:30:12;;;;;;;7.42;4.80;;;;;;;14.72;100.00;99571.02;1715169;82;21914;-67
2022/08/31 02:32:39;;;;;;;9.60;5.40;;;;;;;14.69;100.00;99566.95;1714723;82;21087;-67
2022/08/31 02:35:07;;;;;;;9.58;4.72;;;;;;;14.72;100.00;99575.94;1724104;81;21157;-67
2022/08/31 02:37:35;;;;;;;8.68;5.10;;;;;;;14.75;100.00;99573.96;1732044;81;21118;-67
2022/08/31 02:40:05;;;;;;;9.58;5.25;;;;;;;14.74;100.00;99565.47;1719047;81;21121;-67
2022/08/31 02:42:31;;;;;;;7.97;4.83;;;;;;;14.68;100.00;99560.40;1728755;82;21407;-67
2022/08/31 02:44:58;;;;;;;7.10;4.85;;;;;;;14.65;100.00;99562.38;1719931;80;21051;-67
2022/08/31 02:47:26;;;;;;;10.25;4.78;;;;;;;14.63;100.00;99567.36;1719536;82;21673;-67
2022/08/31 02:49:57;;;;;;;9.65;5.17;;;;;;;14.62;100.00;99567.09;1712917;82;21079;-67
2022/08/31 02:52:24;;;;;;;9.45;5.10;;;;;;;14.60;100.00;99566.57;1706558;82;21150;-67
2022/08/31 02:54:50;;;;;;;;;;;;;;;14.56;100.00;99571.05;1712790;82;21027;-67
2022/08/31 02:57:16;;;;;;;;;;;;;;;14.55;100.00;99571.61;1733261;82;20681;-67
2022/08/31 02:59:44;;;;;;;;;;;;;;;14.56;100.00;99569.69;1729034;82;20158;-67
2022/08/31 03:02:11;;;;;;;;;;;;;;;14.57;100.00;99572.66;1722345;82;20140;-67
2022/08/31 03:04:37;;;;;;;;;;;;;;;14.58;100.00;99568.26;1735500;81;20144;-67
2022/08/31 03:07:05;;;;;;;;;;;;;;;14.57;100.00;99567.99;1721625;82;20111;-67
2022/08/31 03:09:32;;;;;;;;;;;;;;;14.51;100.00;99567.02;1721254;82;20107;-67
2022/08/31 03:11:58;;;;;;;;;;;;;;;14.40;100.00;99565.84;1704531;83;20117;-67
2022/08/31 03:14:25;;;;;;;;;;;;;;;14.32;100.00;99567.05;1726346;82;20111;-67
2022/08/31 03:16:52;;;;;;;;;;;;;;;14.27;100.00;99572.63;1716956;82;20095;-67
2022/08/31 03:19:20;;;;;;;;;;;;;;;14.30;100.00;99567.91;1716551;82;20451;-68
2022/08/31 03:21:46;;;;;;;;;;;;;;;14.33;100.00;99577.70;1725461;82;20129;-68
2022/08/31 03:24:13;;;;;;;;;;;;;;;14.36;100.00;99574.39;1718332;82;20498;-67
2022/08/31 03:26:40;;;;;;;;;;;;;;;14.35;100.00;99575.50;1716765;82;20475;-67
2022/08/31 03:29:06;;;;;;;;;;;;;;;14.35;100.00;99576.87;1716550;82;20361;-67
2022/08/31 03:31:38;;;;;;;;;;;;;;;14.30;100.00;99586.53;1729733;82;20425;-67
2022/08/31 03:34:05;;;;;;;;;;;;;;;14.26;100.00;99577.83;1732224;82;20146;-68
2022/08/31 03:36:31;;;;;;;;;;;;;;;14.21;100.00;99575.98;1728954;82;20169;-68
2022/08/31 03:38:58;;;;;;;;;;;;;;;14.20;100.00;99574.37;1720195;82;20130;-68
2022/08/31 03:41:24;;;;;;;;;;;;;;;14.19;100.00;99581.52;1722401;82;20134;-68
2022/08/31 03:43:51;;;;;;;;;;;;;;;14.20;100.00;99579.86;1719777;82;20119;-68
2022/08/31 03:46:18;;;;;;;;;;;;;;;14.24;100.00;99583.59;1716228;82;20163;-68
2022/08/31 03:48:47;;;;;;;;;;;;;;;14.28;100.00;99581.89;1714648;82;20433;-68
2022/08/31 03:51:15;;;;;;;;;;;;;;;14.26;100.00;99577.28;1720396;82;20181;-68
2022/08/31 03:53:41;;;;;;;;;;;;;;;14.23;100.00;99581.17;1720226;82;20937;-68
2022/08/31 03:56:08;;;;;;;;;;;;;;;14.22;100.00;99588.57;1715438;82;20117;-68
2022/08/31 03:58:37;;;;;;;;;;;;;;;14.22;100.00;99587.20;1727573;81;20138;-68
2022/08/31 04:01:04;;;;;;;;;;;;;;;14.24;100.00;99588.28;1710334;82;20175;-68
2022/08/31 04:03:49;;;;;;;;;;;;;;;14.33;100.00;99587.29;1722628;81;20180;-68
2022/08/31 04:06:34;;;;;;;;;;;;;;;14.45;100.00;99586.86;1726789;81;20472;-68
2022/08/31 04:09:21;;;;;;;;;;;;;;;14.54;100.00;99582.85;1729583;82;20122;-68
2022/08/31 04:11:55;;;;;;;;;;;;;;;14.63;100.00;99585.17;1728957;81;20114;-68
2022/08/31 04:14:38;;;;;;;;;;;;;;;14.74;100.00;99590.69;1684056;84;20142;-68
2022/08/31 04:17:22;;;;;;;;;;;;;;;14.79;100.00;99593.34;1692086;83;20598;-69
2022/08/31 04:19:50;;;;;;;;;;;;;;;14.81;100.00;99593.30;1720012;82;20118;-69
2022/08/31 04:22:19;;;;;;;;;;;;;;;14.89;100.00;99587.11;1733348;81;20904;-69
2022/08/31 04:24:48;;;;;;;;;;;;;;;15.02;100.00;99592.34;1737566;81;20138;-68
2022/08/31 04:27:17;;;;;;;;;;;;;;;15.15;100.00;99595.66;1716854;81;20149;-68
2022/08/31 04:29:45;;;;;;;;;;;;;;;15.31;100.00;99592.84;1730493;81;20130;-70
2022/08/31 04:32:11;;;;;;;;;;;;;;;15.55;100.00;99588.55;1731280;81;20178;-67
2022/08/31 04:34:38;;;;;;;;;;;;;;;15.87;100.00;99591.66;1732427;81;20165;-67
2022/08/31 04:37:05;;;;;;;;;;;;;;;16.24;100.00;99598.72;1732877;81;20120;-67
2022/08/31 04:39:32;;;;;;;;;;;;;;;16.62;100.00;99593.66;1721315;81;20181;-67
2022/08/31 04:41:58;;;;;;;;;;;;;;;16.95;100.00;99592.22;1739634;81;20123;-67
2022/08/31 04:44:26;;;;;;;;;;;;;;;17.22;100.00;99595.30;1744691;81;20815;-67
2022/08/31 04:46:54;;;;;;;;;;;;;;;17.33;100.00;99595.25;1732031;81;20158;-67
2022/08/31 04:49:20;;;;;;;;;;;;;;;17.43;100.00;99592.80;1728811;81;20142;-67
2022/08/31 04:51:47;;;;;;;;;;;;;;;17.55;100.00;99588.27;1731497;81;20963;-67
2022/08/31 04:54:13;;;;;;;;;;;;;;;17.71;100.00;99590.83;1729481;81;20142;-68
2022/08/31 04:56:43;;;;;;;;;;;;;;;17.82;100.00;99590.76;1727998;82;20188;-68
2022/08/31 04:59:11;;;;;;;;;;;;;;;17.95;100.00;99586.81;1723576;82;20126;-68
2022/08/31 05:01:41;;;;;;;;;;;;;;;18.08;100.00;99578.38;1720768;82;20136;-68
2022/08/31 05:04:12;;;;;;;;;;;;;;;18.24;100.00;99585.03;1724426;82;20117;-68
2022/08/31 05:06:40;;;;;;;;;;;;;;;18.44;100.00;99586.84;1722400;82;20138;-68
2022/08/31 05:09:12;;;;;;;;;;;;;;;18.44;100.00;99576.63;1706936;82;20137;-68
2022/08/31 05:11:40;;;;;;;;;;;;;;;18.39;100.00;99581.74;1727543;82;20119;-68
2022/08/31 05:14:08;;;;;;;;;;;;;;;18.45;100.00;99582.39;1722850;82;20143;-68
2022/08/31 05:16:36;;;;;;;;;;;;;;;18.63;100.00;99583.20;1724456;82;20463;-68
2022/08/31 05:19:03;;;;;;;;;;;;;;;19.01;100.00;99591.49;1725317;82;20921;-68
2022/08/31 05:21:34;;;;;;;;;;;;;;;19.43;100.00;99590.50;1726449;82;20209;-67
2022/08/31 05:24:03;;;;;;;;;;;;;;;19.82;100.00;99583.17;1721715;82;20150;-68
2022/08/31 05:26:32;;;;;;;;;;;;;;;20.21;100.00;99582.45;1721038;82;20393;-66
2022/08/31 05:28:59;;;;;;;;;;;;;;;20.60;100.00;99580.55;1724770;82;20603;-67
2022/08/31 05:31:27;;;;;;;;;;;;;;;21.01;100.00;99568.50;1725085;82;20149;-68
2022/08/31 05:33:55;;;;;;;;;;;;;;;21.31;100.00;99569.94;1721803;82;20202;-68
2022/08/31 05:36:24;;;;;;;;;;;;;;;21.66;100.00;99574.39;1718724;82;20520;-69
2022/08/31 05:38:52;;;;;;;;;;;;;;;21.96;100.00;99561.08;1725380;82;20948;-68
2022/08/31 05:41:19;;;;;;;;;;;;;;;22.27;100.00;99568.70;1722325;82;20154;-68
2022/08/31 05:43:46;;;;;;;;;;;;;;;22.44;100.00;99555.90;1724344;83;20159;-67
2022/08/31 05:46:13;;;;;;;;;;;;;;;22.59;100.00;99560.67;1723057;82;20191;-68
2022/08/31 05:48:40;;;;;;;;;;;;;;;22.76;100.00;99563.14;1720853;82;20160;-68
2022/08/31 05:51:13;;;;;;;;;;;;;;;22.94;100.00;99558.05;1722641;82;20417;-69
2022/08/31 05:53:40;;;;;;;;;;;;;;;23.05;100.00;99552.77;1721888;82;20196;-70
2022/08/31 05:56:12;;;;;;;;;;;;;;;23.04;100.00;99553.92;1719532;82;20287;-69
2022/08/31 05:58:37;;;;;;;;;;;;;;;22.98;100.00;99548.42;1713047;82;20127;-69
2022/08/31 06:01:06;;;;;;;;;;;;;;;22.93;100.00;99548.10;1716073;82;20182;-69
2022/08/31 06:03:37;;;;;;;;;;;;;;;23.03;100.00;99547.55;1713320;82;20154;-70
2022/08/31 06:06:04;;;;;;;;;;;;;;;23.25;100.00;99551.08;1706828;82;20131;-70
2022/08/31 06:08:32;;;;;;;;;;;;;;;23.31;100.00;99557.96;1689268;82;20176;-68
2022/08/31 06:10:59;;;;;;;;;;;;;;;23.46;100.00;99548.61;1720498;81;20153;-70
2022/08/31 06:13:26;;;;;;;;;;;;;;;23.36;100.00;99554.69;1722061;81;20130;-69
2022/08/31 06:15:53;;;;;;;;;;;;;;;23.24;100.00;99553.63;1710289;82;20142;-70
2022/08/31 06:18:19;;;;;;;;;;;;;;;23.02;100.00;99547.36;1718760;82;20290;-70
2022/08/31 06:20:48;;;;;;;;;;;;;;;22.78;100.00;99551.09;1710288;82;20143;-70
2022/08/31 06:23:15;;;;;;;;;;;;;;;22.56;100.00;99547.52;1709098;82;20202;-70
2022/08/31 06:25:43;;;;;;;;;;;;;;;22.42;100.00;99551.87;1711184;82;20498;-71
2022/08/31 06:28:14;;;;;;;;;;;;;;;22.32;100.00;99555.38;1719719;82;20414;-69
2022/08/31 06:30:38;;;;;;;;;;;;;;;22.21;100.00;99554.27;1719765;82;20118;-69
2022/08/31 06:33:06;;;;;;;;;;;;;;;22.08;100.00;99562.98;1712316;82;20167;-68
2022/08/31 06:35:37;;;;;;;;;;;;;;;22.05;100.00;99565.89;1710353;82;20978;-69
2022/08/31 06:38:08;;;;;;;;;;;;;;;22.27;100.00;99570.89;1703755;82;20163;-67
2022/08/31 06:40:45;;;;;;;;;;;;;;;22.43;100.00;99565.95;1721226;82;20123;-67
2022/08/31 06:43:20;;;;;;;;;;;;;;;22.62;100.00;99566.90;1704233;82;20118;-65
2022/08/31 06:45:48;;;;;;;;;;;;;;;22.85;100.00;99575.44;1713373;82;20136;-66
2022/08/31 06:48:34;;;;;;;;;;;;;;;22.93;100.00;99564.75;1710706;83;20135;-66
2022/08/31 06:51:01;;;;;;;;;;;;;;;22.96;100.00;99575.72;1718577;82;20139;-66
2022/08/31 06:53:29;;;;;;;;;;;;;;;22.99;100.00;99578.58;1715508;82;20420;-66
2022/08/31 06:56:03;;;;;;;;;;;;;;;23.14;100.00;99570.84;1707097;82;20462;-66
2022/08/31 06:58:34;;;;;;;;;;;;;;;23.27;100.00;99565.43;1712749;81;20158;-67
2022/08/31 07:01:10;;;;;;;;;;;;;;;23.36;100.00;99569.39;1732892;81;20682;-66
2022/08/31 07:03:55;;;;;;;;;;;;;;;23.46;100.00;99566.08;1732067;81;20108;-67
2022/08/31 07:06:23;;;;;;;;;;;;;;;23.65;100.00;99563.94;1726997;82;20466;-68
2022/08/31 07:08:51;;;;;;;;;;;;;;;23.60;100.00;99565.59;1731684;81;20134;-65
2022/08/31 07:11:22;;;;;;;;;;;;;;;23.44;100.00;99566.23;1726631;82;20454;-67
2022/08/31 07:13:49;;;;;;;;;;;;;;;23.39;100.00;99563.11;1728972;81;20138;-64
2022/08/31 07:16:16;;;;;;;;;;;;;;;23.40;100.00;99556.98;1730613;82;20142;-66
2022/08/31 07:18:43;;;;;;;;;;;;;;;23.57;100.00;99559.38;1729976;83;20152;-66
2022/08/31 07:21:25;;;;;;;;;;;;;;;23.63;100.00;99562.12;1728577;81;20134;-65
2022/08/31 07:23:52;;;;;;;;;;;;;;;23.65;100.00;99560.58;1728915;82;20607;-67
2022/08/31 07:26:22;;;;;;;;;;;;;;;23.71;100.00;99559.13;1731250;81;20136;-66
2022/08/31 07:28:52;;;;;;;;;;;;;;;23.73;100.00;99562.36;1734470;82;20118;-65
2022/08/31 07:31:21;;;;;;;;;;;;;;;23.93;100.00;99571.52;1731350;82;20162;-63
2022/08/31 07:33:49;;;;;;;;;;;;;;;24.17;100.00;99562.11;1730759;83;20134;-65
2022/08/31 07:36:16;;;;;;;;;;;;;;;24.24;100.00;99562.25;1731171;81;20170;-65
2022/08/31 07:44:17;;;;;;;;;;;;;;;24.61;100.00;99557.02;1706813;83;20167;-66
2022/08/31 07:46:45;;;;;;;;;;;;;;;25.00;100.00;99552.98;1726021;82;20486;-67
2022/08/31 07:49:14;;;;;;;;;;;;;;;25.16;100.00;99556.42;1721681;82;20159;-66
2022/08/31 07:51:50;;;;;;;;;;;;;;;25.10;100.00;99562.09;1721670;83;20136;-65
2022/08/31 07:54:20;;;;;;;;;;;;;;;24.78;100.00;99555.14;1711803;82;20175;-66
2022/08/31 07:56:50;;;;;;;;;;;;;;;24.50;100.00;99557.41;1725697;82;20151;-65
2022/08/31 07:59:20;;;;;;;;;;;;;;;24.54;100.00;99557.69;1720394;82;20178;-66
2022/08/31 08:01:47;;;;;;;;;;;;;;;24.71;100.00;99553.63;1727069;82;20162;-65
2022/08/31 08:04:20;;;;;;;;;;;;;;;24.96;100.00;99554.90;1722194;82;20133;-65
2022/08/31 08:07:04;;;;;;;;;;;;;;;25.10;100.00;99548.76;1718434;83;20134;-66
2022/08/31 08:09:31;;;;;;;;;;;;;;;24.93;100.00;99550.66;1724729;82;20110;-66
2022/08/31 08:12:05;;;;;;;;;;;;;;;24.65;100.00;99558.70;1674787;82;20122;-66
2022/08/31 08:14:46;;;;;;;;;;;;;;;24.40;100.00;99555.22;1709497;83;20699;-66
2022/08/31 08:17:20;;;;;;;;;;;;;;;24.08;100.00;99552.58;1716759;83;20159;-67
2022/08/31 08:20:00;;;;;;;;;;;;;;;23.78;100.00;99546.77;1739893;82;20130;-66
2022/08/31 08:22:27;;;;;;;;;;;;;;;23.62;100.00;99542.44;1733397;81;20335;-66
2022/08/31 08:25:11;;;;;;;;;;;;;;;23.86;100.00;99536.62;1704611;82;20178;-65
2022/08/31 08:27:46;;;;;;;;;;;;;;;24.16;100.00;99535.49;1734565;81;20130;-67
2022/08/31 08:30:14;;;;;;;;;;;;;;;24.42;100.00;99536.17;1724673;82;20170;-66
2022/08/31 08:32:43;;;;;;;;;;;;;;;24.61;100.00;99531.97;1730264;82;20453;-66
2022/08/31 08:35:09;;;;;;;;;;;;;;;24.46;100.00;99534.27;1731526;81;20137;-67
2022/08/31 08:37:39;;;;;;;;;;;;;;;24.32;100.00;99539.56;1729876;81;20126;-65
2022/08/31 08:40:10;;;;;;;;;;;;;;;23.94;100.00;99537.58;1725066;81;20162;-66
2022/08/31 08:42:40;;;;;;;;;;;;;;;23.78;100.00;99545.97;1728147;81;20131;-67
2022/08/31 08:45:07;;;;;;;;;;;;;;;23.82;100.00;99540.48;1734313;81;20130;-67
2022/08/31 08:47:35;;;;;;;;;;;;;;;23.77;100.00;99536.04;1717695;81;20133;-66
2022/08/31 08:50:06;;;;;;;;;;;;;;;23.89;100.00;99535.88;1727302;82;20623;-67
2022/08/31 08:52:41;;;;;;;;;;;;;;;24.08;100.00;99536.48;1732506;81;20809;-66
2022/08/31 08:55:20;;;;;;;;;;;;;;;23.95;100.00;99534.41;1720686;81;20387;-66
2022/08/31 08:57:54;;;;;;;;;;;;;;;23.89;100.00;99526.16;1729037;82;20108;-66
2022/08/31 09:00:18;;;;;;;;;;;;;;;23.85;100.00;99528.05;1692649;83;20111;-67
2022/08/31 09:02:56;;;;;;;;;;;;;;;23.88;100.00;99527.31;1722515;82;20450;-67
2022/08/31 09:05:44;;;;;;;;;;;;;;;23.98;100.00;99529.53;1722346;82;20127;-67
2022/08/31 09:08:27;;;;;;;;;;;;;;;23.96;100.00;99522.13;1716619;82;20110;-66
2022/08/31 09:11:07;;;;;;;;;;;;;;;23.82;100.00;99518.24;1711631;82;20141;-66
2022/08/31 09:14:05;;;;;;;;;;;;;;;23.75;100.00;99518.33;1697850;82;20150;-65
2022/08/31 09:16:46;;;;;;;;;;;;;;;23.61;100.00;99530.52;1720774;82;20131;-67
2022/08/31 09:19:13;;;;;;;;;;;;;;;23.40;100.00;99531.39;1723128;82;20172;-67
2022/08/31 09:21:52;;;;;;;;;;;;;;;23.41;100.00;99533.59;1718631;81;20244;-67
2022/08/31 09:24:20;;;;;;;;;;;;;;;23.66;100.00;99530.83;1715428;82;20115;-68
2022/08/31 09:27:30;;;;;;;;;;;;;;;23.88;100.00;99530.09;1696762;82;20171;-67
2022/08/31 09:29:43;;;;;;;;;;;;;;;23.92;100.00;99520.44;1714334;82;20655;-67
2022/08/31 09:32:08;;;;;;;;;;;;;;;23.86;100.00;99522.72;1721962;82;20156;-68
2022/08/31 09:34:37;;;;;;;;;;;;;;;23.92;100.00;99521.83;1725288;81;20127;-68
2022/08/31 09:37:21;;;;;;;;;;;;;;;24.11;100.00;99520.45;1712029;82;20428;-67
2022/08/31 09:39:49;;;;;;;;;;;;;;;24.26;100.00;99519.59;1708041;82;20141;-66
2022/08/31 09:42:22;;;;;;;;;;;;;;;24.36;100.00;99525.14;1698569;82;20382;-66
2022/08/31 09:44:49;;;;;;;;;;;;;;;24.21;100.00;99527.64;1711901;82;20127;-67
2022/08/31 09:47:47;;;;;;;;;;;;;;;23.90;100.00;99526.38;1717459;82;20144;-66
2022/08/31 09:50:25;;;;;;;;;;;;;;;23.58;100.00;99535.42;1718701;82;20154;-65
2022/08/31 09:55:27;;;;;;;;;;;;;;;23.14;100.00;99527.80;1647619;82;20135;-66
2022/08/31 09:58:01;;;;;;;;;;;;;;;22.95;100.00;99527.75;1720378;82;20139;-64
2022/08/31 10:00:39;;;;;;;;;;;;;;;22.81;100.00;99525.39;1716695;82;20157;-64
2022/08/31 10:03:19;;;;;;;;;;;;;;;22.89;100.00;99525.00;1713650;83;20133;-65
2022/08/31 10:05:41;;;;;;;;;;;;;;;23.09;100.00;99518.95;1711531;82;20405;-66
2022/08/31 10:08:12;;;;;;;;;;;;;;;23.38;100.00;99521.83;1721728;82;20435;-66
2022/08/31 10:10:39;;;;;;;;;;;;;;;23.61;100.00;99529.13;1719754;83;20107;-64
2022/08/31 10:13:24;;;;;;;;;;;;;;;23.66;100.00;99518.33;1720166;82;20111;-66
2022/08/31 10:16:05;;;;;;;;;;;;;;;23.52;100.00;99513.27;1714802;82;20118;-67
2022/08/31 10:18:41;;;;;;;;;;;;;;;23.45;100.00;99510.91;1724399;82;20159;-66
2022/08/31 10:21:13;;;;;;;;;;;;;;;23.62;100.00;99517.44;1700220;82;20111;-66
2022/08/31 10:23:55;;;;;;;;;;;;;;;23.79;100.00;99505.89;1731048;82;20131;-65
2022/08/31 10:26:41;;;;;;;;;;;;;;;23.90;100.00;99513.87;1707334;82;20129;-65
2022/08/31 10:29:32;;;;;;;;;;;;;;;24.08;100.00;99501.14;1719841;82;20262;-66
2022/08/31 10:32:02;;;;;;;;;;;;;;;24.10;100.00;99510.48;1702836;82;20143;-65
2022/08/31 10:37:32;;;;;;;;;;;;;;;23.95;100.00;99513.56;1719527;82;20170;-66
2022/08/31 10:40:05;;;;;;;;;;;;;;;23.72;100.00;99510.72;1714558;82;20163;-66
2022/08/31 10:42:42;;;;;;;;;;;;;;;23.59;100.00;99511.22;1721315;82;20139;-65
2022/08/31 10:45:22;;;;;;;;;;;;;;;23.44;100.00;99513.45;1705707;82;20168;-65
2022/08/31 10:47:50;;;;;;;;;;;;;;;23.34;100.00;99509.82;1717980;82;20135;-66
2022/08/31 10:50:26;;;;;;;;;;;;;;;23.20;100.00;99518.63;1718488;83;20099;-67
2022/08/31 10:53:09;;;;;;;;;;;;;;;23.04;100.00;99509.50;1724124;82;20123;-64
2022/08/31 10:55:57;;;;;;;;;;;;;;;22.90;100.00;99512.74;1713007;82;20152;-65
2022/08/31 10:58:30;;;;;;;;;;;;;;;22.81;100.00;99516.30;1722895;82;20170;-64
2022/08/31 11:01:08;;;;;;;;;;;;;;;22.63;100.00;99517.20;1730707;82;20450;-63
2022/08/31 11:03:38;;;;;;;;;;;;;;;22.51;100.00;99522.00;1711663;82;20131;-63
2022/08/31 11:06:26;;;;;;;;;;;;;;;22.38;100.00;99517.11;1722148;81;20151;-66
2022/08/31 11:09:13;;;;;;;;;;;;;;;22.38;100.00;99521.84;1721774;81;20130;-64
2022/08/31 11:11:56;;;;;;;;;;;;;;;22.35;100.00;99512.86;1727406;82;20441;-66
2022/08/31 11:14:36;;;;;;;;;;;;;;;22.38;100.00;99519.08;1725199;81;20159;-66
2022/08/31 11:17:21;;;;;;;;;;;;;;;22.51;100.00;99513.09;1720227;83;20156;-66
2022/08/31 11:20:25;;;;;;;;;;;;;;;22.69;100.00;99504.69;1714094;83;20144;-64
2022/08/31 11:23:04;;;;;;;;;;;;;;;22.98;100.00;99502.04;1727905;82;20091;-64
2022/08/31 11:25:49;;;;;;;;;;;;;;;23.06;100.00;99498.25;1724310;81;20159;-67
2022/08/31 11:28:37;;;;;;;;;;;;;;;22.97;100.00;99494.06;1716665;81;21091;-66
2022/08/31 11:31:07;;;;;;;;;;;;;;;22.85;100.00;99501.89;1659783;85;20192;-63
2022/08/31 11:33:34;;;;;;;;;;;;;;;22.79;100.00;99498.59;1663129;85;20149;-63
2022/08/31 11:36:08;;;;;;;;;;;;;;;22.76;100.00;99502.67;1668878;84;20137;-64
2022/08/31 11:38:53;;;;;;;;;;;;;;;22.79;100.00;99501.95;1665525;85;20135;-65
2022/08/31 11:41:45;;;;;;;;;;;;;;;22.88;100.00;99488.72;1658873;85;20170;-66
2022/08/31 11:44:09;;;;;;;;;;;;;;;23.01;100.00;99494.38;1658021;86;20202;-64
2022/08/31 11:46:41;;;;;;;;;;;;;;;23.16;100.00;99483.03;1631155;86;20157;-67
2022/08/31 11:49:09;;;;;;;;;;;;;;;23.28;100.00;99487.88;1681352;85;20288;-66
2022/08/31 11:51:44;;;;;;;;;;;;;;;23.34;100.00;99484.83;1683906;84;20229;-66
2022/08/31 11:54:25;;;;;;;;;;;;;;;23.35;100.00;99485.83;1685957;85;20190;-64
2022/08/31 11:56:55;;;;;;;;;;;;;;;23.30;100.00;99483.36;1676176;84;20139;-66
2022/08/31 11:59:33;;;;;;;;;;;;;;;23.28;100.00;99471.20;1681319;84;20766;-65
2022/08/31 12:02:22;;;;;;;;;;;;;;;23.33;100.00;99467.35;1687803;84;20306;-66
2022/08/31 12:04:56;;;;;;;;;;;;;;;23.45;100.00;99466.45;1687755;83;20150;-66
2022/08/31 12:07:32;;;;;;;;;;;;;;;23.45;100.00;99457.55;1677932;84;20138;-65
2022/08/31 12:10:20;;;;;;;;;;;;;;;23.41;100.00;99462.77;1671877;85;20380;-65
2022/08/31 12:14:45;;;;;;;2.10;0.98;;;;;;;23.28;100.00;99460.10;1799120;79;22791;-66
2022/08/31 12:17:26;;;;;;;1.75;0.95;;;;;;;23.12;100.00;99469.64;1754814;80;21027;-67
2022/08/31 12:20:11;;;;;;;2.10;1.10;;;;;;;23.05;100.00;99476.42;1750474;80;21109;-65
2022/08/31 12:26:26;;;;;;;3.02;1.10;;;;;;;23.03;100.00;99460.11;1741917;80;21090;-65
2022/08/31 12:29:28;;;;;;;2.60;1.00;;;;;;;23.05;100.00;99465.31;1722899;82;21077;-65
2022/08/31 12:32:11;;;;;;;2.72;0.90;;;;;;;23.13;100.00;99457.38;1752213;80;21109;-65
2022/08/31 12:34:49;;;;;;;2.15;1.00;;;;;;;23.13;100.00;99457.38;1749526;81;21058;-66
2022/08/31 12:37:19;;;;;;;0.93;0.60;;;;;;;23.14;100.00;99448.67;1726745;80;20967;-65
2022/08/31 12:39:46;;;;;;;2.12;0.55;;;;;;;23.31;100.00;99450.26;1724264;82;21544;-64
2022/08/31 12:42:12;;;;;;;1.25;0.70;;;;;;;23.31;100.00;99450.26;1753235;80;22230;-65
2022/08/31 12:44:44;;;;;;;3.08;0.85;;;;;;;23.33;100.00;99459.02;1747099;81;21302;-66
2022/08/31 12:47:29;;;;;;;3.60;0.90;;;;;;;23.29;100.00;99457.55;1709969;81;21509;-64
2022/08/31 12:50:12;;;;;;;6.35;1.60;;;;;;;23.29;100.00;99452.00;1733889;81;21180;-65
2022/08/31 12:52:53;;;;;;;2.70;1.52;;;;;;;23.35;100.00;99449.73;1696113;83;21555;-65
2022/08/31 12:55:53;;;;;;;2.83;1.30;;;;;;;23.44;100.00;99456.51;1699995;83;21022;-66
2022/08/31 12:58:49;;;;;;;1.82;0.90;;;;;;;23.47;100.00;99457.16;1680865;84;21577;-67